Time;durP1;ratioP1;P1;durP2;ratioP2;P2;SDS_P1;SDS_P2;PMS_P1;PMS_P2;Temp;Humidity;BMP_temperature;BMP_pressure;BME280_temperature;BME280_humidity;BME280_pressure;Samples;Min_cycle;Max_cycle;Signal;HPM_P1;HPM_P2
2023/07/17 00:01:12;;;;;;;4.30;3.50;;;;;;;20.48;86.36;98345.63;4013134;29;20700;-75
2023/07/17 00:03:14;;;;;;;4.17;3.47;;;;;;;20.45;86.01;98351.25;3995766;29;21081;-75
2023/07/17 00:05:18;;;;;;;5.77;3.83;;;;;;;20.40;86.56;98350.06;4014541;29;21279;-75
2023/07/17 00:07:21;;;;;;;4.77;3.77;;;;;;;20.36;86.71;98354.84;4013606;29;20654;-75
2023/07/17 00:09:26;;;;;;;6.30;3.67;;;;;;;20.33;85.27;98357.00;4012060;29;20674;-75
2023/07/17 00:11:29;;;;;;;4.13;3.40;;;;;;;20.27;87.01;98362.09;4013431;29;20671;-76
2023/07/17 00:13:32;;;;;;;5.40;3.93;;;;;;;20.26;85.75;98358.59;4009347;29;20661;-73
2023/07/17 00:15:35;;;;;;;4.83;3.87;;;;;;;20.28;87.15;98355.78;4011636;29;20762;-73
2023/07/17 00:17:39;;;;;;;4.77;3.13;;;;;;;20.29;85.59;98352.16;4013940;29;20710;-73
2023/07/17 00:19:50;;;;;;;6.53;3.77;;;;;;;20.25;86.07;98348.16;4011225;29;20663;-73
2023/07/17 00:21:53;;;;;;;4.13;3.20;;;;;;;20.21;87.00;98344.19;4012026;29;20753;-73
2023/07/17 00:23:57;;;;;;;4.50;3.27;;;;;;;20.21;87.51;98350.31;4005355;29;20662;-74
2023/07/17 00:26:02;;;;;;;5.37;3.60;;;;;;;20.22;86.16;98351.13;4012436;29;21009;-76
2023/07/17 00:28:05;;;;;;;4.10;2.80;;;;;;;20.19;86.24;98344.34;4011231;29;20670;-75
2023/07/17 00:30:08;;;;;;;5.07;3.60;;;;;;;20.19;85.87;98354.09;4010768;29;20670;-75
2023/07/17 00:32:11;;;;;;;4.83;3.80;;;;;;;20.17;87.63;98340.19;4026416;29;20719;-75
2023/07/17 00:34:15;;;;;;;6.73;3.57;;;;;;;20.14;87.72;98356.38;3999493;29;20751;-75
2023/07/17 00:36:18;;;;;;;5.50;3.43;;;;;;;20.12;86.75;98355.72;4014337;29;20671;-75
2023/07/17 00:38:21;;;;;;;4.00;2.77;;;;;;;20.09;87.74;98350.75;4013092;29;20749;-75
2023/07/17 00:40:24;;;;;;;4.47;3.23;;;;;;;20.05;86.19;98352.84;4014965;29;20778;-75
2023/07/17 00:42:28;;;;;;;4.67;3.80;;;;;;;20.02;87.24;98349.69;4010426;29;20677;-74
2023/07/17 00:44:32;;;;;;;3.63;3.07;;;;;;;19.96;86.83;98345.84;3996485;29;20687;-75
2023/07/17 00:46:34;;;;;;;4.80;3.20;;;;;;;19.96;87.07;98339.72;4008289;29;20651;-75
2023/07/17 00:48:40;;;;;;;5.77;3.80;;;;;;;19.92;86.31;98339.22;4015148;29;20650;-75
2023/07/17 00:50:42;;;;;;;5.20;3.93;;;;;;;19.87;87.50;98341.50;4017279;29;20763;-74
2023/07/17 00:52:45;;;;;;;4.37;3.80;;;;;;;19.86;87.77;98333.72;4010882;29;20692;-74
2023/07/17 00:54:50;;;;;;;5.50;4.20;;;;;;;19.83;87.92;98344.59;4016266;29;20662;-74
2023/07/17 00:56:54;;;;;;;5.60;3.77;;;;;;;19.80;86.78;98344.91;3998638;29;20813;-74
2023/07/17 00:58:59;;;;;;;5.80;3.93;;;;;;;19.79;87.34;98348.53;4002517;29;20651;-75
2023/07/17 01:01:03;;;;;;;7.00;3.53;;;;;;;19.79;88.45;98342.41;4028250;29;20667;-75
2023/07/17 01:03:06;;;;;;;5.37;3.77;;;;;;;19.79;87.31;98330.00;4024080;29;20690;-75
2023/07/17 01:05:09;;;;;;;3.93;3.50;;;;;;;19.75;87.81;98330.44;4011692;29;20694;-75
2023/07/17 01:07:12;;;;;;;6.30;4.10;;;;;;;19.73;88.04;98338.56;3999703;29;20655;-74
2023/07/17 01:09:17;;;;;;;5.60;3.63;;;;;;;19.71;88.08;98337.88;4014779;29;20671;-74
2023/07/17 01:11:20;;;;;;;5.47;3.50;;;;;;;19.66;87.38;98337.50;3993723;29;21755;-74
2023/07/17 01:13:23;;;;;;;4.00;3.40;;;;;;;19.63;87.91;98347.56;4010638;29;20646;-75
2023/07/17 01:15:28;;;;;;;5.40;3.50;;;;;;;19.59;89.42;98357.66;4014147;29;20669;-74
2023/07/17 01:17:32;;;;;;;3.57;2.90;;;;;;;19.58;88.74;98350.69;4026482;29;20765;-75
2023/07/17 01:19:35;;;;;;;4.50;3.70;;;;;;;19.57;88.60;98349.00;4013133;29;20717;-74
2023/07/17 01:21:43;;;;;;;6.40;4.20;;;;;;;19.57;89.08;98359.59;4011968;29;21169;-74
2023/07/17 01:23:47;;;;;;;6.70;4.17;;;;;;;19.59;88.65;98356.78;4013265;29;20749;-75
2023/07/17 01:25:50;;;;;;;7.13;4.50;;;;;;;19.61;89.16;98362.78;4001609;29;20750;-74
2023/07/17 01:27:54;;;;;;;6.03;3.77;;;;;;;19.59;89.86;98355.00;4013488;29;21316;-74
2023/07/17 01:29:57;;;;;;;4.43;3.50;;;;;;;19.62;89.15;98341.47;4010317;29;20755;-75
2023/07/17 01:32:00;;;;;;;4.83;3.23;;;;;;;19.63;88.47;98344.91;4013655;29;20691;-75
2023/07/17 01:34:03;;;;;;;6.30;4.17;;;;;;;19.60;90.02;98356.63;3997843;29;20673;-75
2023/07/17 01:36:08;;;;;;;5.33;3.73;;;;;;;19.61;88.74;98370.72;4001148;29;20693;-75
2023/07/17 01:38:13;;;;;;;5.37;3.30;;;;;;;19.61;89.89;98379.47;4011165;29;20725;-75
2023/07/17 01:40:18;;;;;;;4.67;3.37;;;;;;;19.59;89.83;98386.75;4014554;29;20762;-74
2023/07/17 01:42:21;;;;;;;5.57;3.57;;;;;;;19.58;90.50;98395.66;4009248;29;21113;-75
2023/07/17 01:44:28;;;;;;;4.97;3.63;;;;;;;19.56;90.89;98400.28;4007563;29;21284;-75
2023/07/17 01:46:31;;;;;;;5.80;4.00;;;;;;;19.53;89.64;98384.72;4012273;29;20762;-74
2023/07/17 01:48:34;;;;;;;5.67;3.37;;;;;;;19.55;89.03;98369.50;4013876;29;20686;-75
2023/07/17 01:50:37;;;;;;;5.47;3.77;;;;;;;19.55;88.82;98376.63;3999603;29;20756;-74
2023/07/17 01:52:40;;;;;;;5.60;3.70;;;;;;;19.53;88.02;98370.63;4009975;29;20756;-74
2023/07/17 01:54:44;;;;;;;4.70;3.40;;;;;;;19.50;88.88;98371.78;4013989;29;20657;-75
2023/07/17 01:56:48;;;;;;;4.33;3.57;;;;;;;19.51;88.74;98380.56;4007814;29;20754;-74
2023/07/17 01:58:51;;;;;;;5.60;3.80;;;;;;;19.52;88.31;98377.75;4022663;29;20751;-74
2023/07/17 02:00:54;;;;;;;5.33;3.80;;;;;;;19.52;89.08;98369.81;4015464;29;21343;-75
2023/07/17 02:02:57;;;;;;;4.60;3.40;;;;;;;19.52;88.64;98375.09;4014290;29;20673;-74
2023/07/17 02:05:00;;;;;;;5.60;3.53;;;;;;;19.56;88.75;98378.28;4011783;29;20715;-74
2023/07/17 02:07:04;;;;;;;5.27;3.40;;;;;;;19.59;90.19;98385.91;4006144;29;20670;-74
2023/07/17 02:09:07;;;;;;;5.90;3.67;;;;;;;19.60;90.06;98377.00;4000061;29;20658;-75
2023/07/17 02:11:10;;;;;;;6.30;3.90;;;;;;;19.59;89.50;98378.81;4012623;29;21037;-74
2023/07/17 02:13:14;;;;;;;6.20;3.60;;;;;;;19.60;89.03;98395.53;4008244;29;20662;-75
2023/07/17 02:15:18;;;;;;;4.17;3.10;;;;;;;19.61;89.81;98392.72;4007281;29;20661;-75
2023/07/17 02:17:21;;;;;;;6.13;3.80;;;;;;;19.64;89.09;98388.94;3993856;29;20677;-74
2023/07/17 02:19:24;;;;;;;6.20;3.70;;;;;;;19.66;89.11;98389.63;3998867;29;20689;-75
2023/07/17 02:21:30;;;;;;;3.90;3.13;;;;;;;19.65;89.67;98386.16;4011541;29;20748;-75
2023/07/17 02:23:35;;;;;;;4.17;3.33;;;;;;;19.66;88.59;98385.13;4009288;29;20748;-75
2023/07/17 02:25:38;;;;;;;4.50;3.30;;;;;;;19.60;87.92;98383.09;4001351;29;20650;-74
2023/07/17 02:27:41;;;;;;;5.30;3.80;;;;;;;19.57;88.10;98375.47;4009391;29;20746;-75
2023/07/17 02:29:47;;;;;;;4.07;3.67;;;;;;;19.55;89.26;98382.75;4008973;29;20734;-74
2023/07/17 02:31:51;;;;;;;4.70;3.60;;;;;;;19.58;89.21;98389.56;4021305;29;20664;-74
2023/07/17 02:33:55;;;;;;;4.30;3.43;;;;;;;19.58;89.59;98386.91;4009252;29;20662;-74
2023/07/17 02:35:57;;;;;;;7.20;4.00;;;;;;;19.60;89.68;98398.16;4012454;29;21274;-74
2023/07/17 02:38:00;;;;;;;6.60;3.90;;;;;;;19.60;89.31;98390.22;4009554;29;20675;-74
2023/07/17 02:40:08;;;;;;;5.50;3.53;;;;;;;19.59;90.77;98394.69;4010580;29;20669;-75
2023/07/17 02:42:11;;;;;;;4.60;4.00;;;;;;;19.60;90.52;98401.63;4010449;29;21065;-75
2023/07/17 02:44:14;;;;;;;4.63;3.77;;;;;;;19.63;90.70;98409.28;4021940;29;20681;-75
2023/07/17 02:46:18;;;;;;;5.13;3.50;;;;;;;19.61;91.24;98402.50;4006385;29;20658;-75
2023/07/17 02:48:22;;;;;;;5.93;4.03;;;;;;;19.61;91.40;98408.59;4014365;29;20715;-74
2023/07/17 02:50:25;;;;;;;5.97;4.07;;;;;;;19.62;91.26;98417.38;4012998;29;20664;-74
2023/07/17 02:52:28;;;;;;;5.03;3.70;;;;;;;19.62;90.27;98412.94;4001972;29;20662;-74
2023/07/17 02:54:31;;;;;;;6.33;4.63;;;;;;;19.60;90.31;98412.22;4011865;29;21330;-75
2023/07/17 02:56:34;;;;;;;7.23;3.90;;;;;;;19.60;90.31;98417.50;4018618;29;20693;-75
2023/07/17 02:58:42;;;;;;;5.03;3.63;;;;;;;19.60;89.15;98422.81;4012132;29;20659;-75
2023/07/17 03:00:45;;;;;;;7.10;3.97;;;;;;;19.60;89.13;98424.63;4010926;29;20643;-74
2023/07/17 03:02:50;;;;;;;6.90;3.60;;;;;;;19.61;90.51;98431.59;4013921;29;20694;-75
2023/07/17 03:04:56;;;;;;;5.07;4.00;;;;;;;19.61;89.42;98437.72;4016686;29;20697;-75
2023/07/17 03:06:59;;;;;;;5.47;4.07;;;;;;;19.59;90.45;98430.91;4015380;29;20758;-74
2023/07/17 03:09:02;;;;;;;5.33;4.37;;;;;;;19.59;90.45;98436.19;4011524;29;20662;-74
2023/07/17 03:11:06;;;;;;;5.77;3.83;;;;;;;19.56;89.88;98431.19;4024848;29;20655;-74
2023/07/17 03:13:09;;;;;;;6.37;4.10;;;;;;;19.54;89.28;98438.47;4010025;29;20666;-75
2023/07/17 03:15:12;;;;;;;6.83;3.97;;;;;;;19.53;90.78;98434.16;4015803;29;20711;-74
2023/07/17 03:17:16;;;;;;;5.10;4.10;;;;;;;19.50;90.45;98426.50;4009337;29;20758;-74
2023/07/17 03:19:20;;;;;;;5.67;3.73;;;;;;;19.49;91.42;98432.81;4008681;29;20658;-73
2023/07/17 03:21:24;;;;;;;7.00;3.23;;;;;;;19.49;90.40;98431.00;4017540;29;21112;-73
2023/07/17 03:23:27;;;;;;;5.00;4.03;;;;;;;19.48;89.92;98439.94;4014910;29;20656;-73
2023/07/17 03:25:30;;;;;;;4.83;3.83;;;;;;;19.49;90.61;98436.28;4017604;29;20666;-73
2023/07/17 03:27:33;;;;;;;4.10;3.67;;;;;;;19.51;90.47;98431.66;4015218;29;20672;-73
2023/07/17 03:29:37;;;;;;;6.40;4.40;;;;;;;19.51;89.33;98434.31;4014509;29;20650;-73
2023/07/17 03:31:40;;;;;;;6.50;4.33;;;;;;;19.48;89.86;98434.63;4014946;29;20646;-75
2023/07/17 03:33:43;;;;;;;4.53;3.60;;;;;;;19.50;90.63;98437.97;4015272;29;20730;-73
2023/07/17 03:35:49;;;;;;;4.93;3.87;;;;;;;19.48;90.38;98439.94;4003923;29;20766;-73
2023/07/17 03:37:52;;;;;;;5.60;3.80;;;;;;;19.47;89.84;98443.53;4007267;29;21019;-73
2023/07/17 03:39:55;;;;;;;6.67;4.20;;;;;;;19.46;90.86;98447.16;4017940;29;20709;-73
2023/07/17 03:41:58;;;;;;;6.20;4.00;;;;;;;19.46;90.80;98447.16;4018518;29;20692;-73
2023/07/17 03:44:02;;;;;;;7.87;4.53;;;;;;;19.44;91.18;98451.78;4014375;29;20712;-73
2023/07/17 03:46:05;;;;;;;4.87;4.00;;;;;;;19.40;90.99;98446.94;3999353;29;20683;-73
2023/07/17 03:48:08;;;;;;;5.10;3.83;;;;;;;19.37;91.58;98457.81;4016017;29;20713;-73
2023/07/17 03:50:14;;;;;;;5.00;3.90;;;;;;;19.34;91.54;98457.31;4014422;29;21081;-73
2023/07/17 03:52:19;;;;;;;5.37;4.07;;;;;;;19.31;91.02;98452.31;4021241;29;21031;-73
2023/07/17 03:54:22;;;;;;;5.20;3.60;;;;;;;19.29;91.47;98454.25;4012805;29;20669;-72
2023/07/17 03:56:28;;;;;;;5.83;3.70;;;;;;;19.28;90.57;98448.13;4016252;29;20668;-73
2023/07/17 03:58:32;;;;;;;5.23;3.60;;;;;;;19.27;91.38;98457.03;4013774;29;21445;-73
2023/07/17 04:00:35;;;;;;;5.20;4.00;;;;;;;19.29;91.78;98454.25;4011942;29;26059;-73
2023/07/17 04:02:41;;;;;;;7.20;3.87;;;;;;;19.31;91.56;98453.13;4027973;29;20663;-73
2023/07/17 04:04:52;;;;;;;6.50;4.40;;;;;;;19.31;91.51;98461.06;4011834;29;20669;-73
2023/07/17 04:06:57;;;;;;;6.33;4.30;;;;;;;19.31;90.87;98452.31;4014141;29;20693;-73
2023/07/17 04:09:02;;;;;;;6.30;4.40;;;;;;;19.29;90.95;98457.75;4010758;29;20682;-76
2023/07/17 04:11:07;;;;;;;5.83;3.90;;;;;;;19.28;91.38;98458.72;4025403;29;21406;-74
2023/07/17 04:13:13;;;;;;;7.20;4.37;;;;;;;19.29;91.77;98454.25;4011007;29;20757;-73
2023/07/17 04:15:16;;;;;;;3.90;3.47;;;;;;;19.29;90.08;98456.91;4014887;29;20706;-73
2023/07/17 04:17:19;;;;;;;5.60;4.07;;;;;;;19.30;90.16;98459.41;4008171;29;21522;-73
2023/07/17 04:19:23;;;;;;;4.83;3.73;;;;;;;19.32;91.42;98457.47;4010828;29;20675;-74
2023/07/17 04:21:26;;;;;;;5.90;3.90;;;;;;;19.33;90.59;98460.91;4001702;29;20722;-73
2023/07/17 04:23:29;;;;;;;5.53;3.70;;;;;;;19.32;90.36;98461.88;4012463;29;20701;-73
2023/07/17 04:25:39;;;;;;;4.97;4.13;;;;;;;19.34;90.76;98465.25;4002246;29;20689;-73
2023/07/17 04:27:42;;;;;;;6.80;3.90;;;;;;;19.34;91.49;98467.88;3998327;29;20729;-73
2023/07/17 04:29:46;;;;;;;5.67;4.30;;;;;;;19.33;91.71;98467.03;4003331;29;20699;-73
2023/07/17 04:31:49;;;;;;;7.60;4.27;;;;;;;19.35;90.46;98470.38;3998557;29;20687;-73
2023/07/17 04:33:52;;;;;;;6.23;3.77;;;;;;;19.36;91.18;98472.03;4010591;29;20671;-73
2023/07/17 04:35:56;;;;;;;4.93;3.47;;;;;;;19.37;91.11;98476.34;4011527;29;21574;-73
2023/07/17 04:37:59;;;;;;;5.20;3.57;;;;;;;19.38;90.78;98478.03;3994710;29;20664;-73
2023/07/17 04:40:05;;;;;;;5.00;4.07;;;;;;;19.40;90.65;98484.81;4004441;29;20719;-73
2023/07/17 04:42:10;;;;;;;5.77;3.63;;;;;;;19.43;91.97;98484.50;3997558;29;20719;-73
2023/07/17 04:44:13;;;;;;;7.63;4.00;;;;;;;19.49;90.90;98491.84;4015234;29;20709;-76
2023/07/17 04:46:16;;;;;;;6.00;3.97;;;;;;;19.53;91.28;98493.22;3999230;29;20670;-73
2023/07/17 04:48:20;;;;;;;5.90;4.00;;;;;;;19.58;90.94;98492.78;4000253;29;20642;-73
2023/07/17 04:50:25;;;;;;;6.53;4.20;;;;;;;19.64;90.86;98500.13;4011476;29;20749;-76
2023/07/17 04:52:28;;;;;;;6.77;4.50;;;;;;;19.69;91.79;98500.50;4008890;29;20646;-75
2023/07/17 04:54:31;;;;;;;4.90;3.97;;;;;;;19.73;90.78;98501.88;4013668;29;21257;-76
2023/07/17 04:56:34;;;;;;;6.57;4.67;;;;;;;19.80;90.12;98508.19;4011080;29;20675;-76
2023/07/17 04:58:42;;;;;;;5.40;3.90;;;;;;;19.85;90.72;98501.47;4009633;29;20658;-73
2023/07/17 05:00:47;;;;;;;5.70;4.07;;;;;;;19.89;90.99;98502.84;4014604;29;21098;-75
2023/07/17 05:02:50;;;;;;;5.30;4.10;;;;;;;19.92;90.62;98505.19;4012736;29;21323;-73
2023/07/17 05:04:54;;;;;;;4.50;3.27;;;;;;;19.97;89.25;98500.31;4009527;29;20663;-75
2023/07/17 05:06:58;;;;;;;5.80;4.50;;;;;;;20.03;88.64;98505.00;4001982;29;20675;-73
2023/07/17 05:09:02;;;;;;;5.20;3.97;;;;;;;20.08;88.28;98502.72;4001023;29;21032;-74
2023/07/17 05:11:04;;;;;;;6.03;3.97;;;;;;;20.15;88.50;98506.41;4015259;29;20752;-73
2023/07/17 05:13:13;;;;;;;6.10;4.27;;;;;;;20.24;89.80;98514.28;4012865;29;20753;-74
2023/07/17 05:15:18;;;;;;;5.50;4.30;;;;;;;20.31;87.74;98510.00;4019946;29;21021;-74
2023/07/17 05:17:20;;;;;;;5.50;4.00;;;;;;;20.37;88.55;98517.34;4008927;29;20657;-74
2023/07/17 05:19:23;;;;;;;4.10;3.50;;;;;;;20.45;87.56;98509.47;4005555;29;20662;-74
2023/07/17 05:21:27;;;;;;;5.90;3.70;;;;;;;20.51;88.03;98511.50;4006993;29;20668;-73
2023/07/17 05:23:31;;;;;;;5.83;3.80;;;;;;;20.53;87.79;98515.63;4008271;29;20666;-74
2023/07/17 05:25:35;;;;;;;8.40;3.90;;;;;;;20.54;88.88;98509.34;4008303;29;21233;-74
2023/07/17 05:27:38;;;;;;;4.73;4.07;;;;;;;20.58;88.34;98508.06;4014488;29;20653;-74
2023/07/17 05:29:41;;;;;;;4.40;4.00;;;;;;;20.60;89.22;98506.06;4010603;29;20742;-74
2023/07/17 05:31:46;;;;;;;8.57;4.80;;;;;;;20.63;88.40;98511.06;4004752;29;22215;-74
2023/07/17 05:33:49;;;;;;;5.90;3.97;;;;;;;20.65;90.49;98509.09;3998578;29;21099;-73
2023/07/17 05:35:53;;;;;;;5.33;4.50;;;;;;;20.69;88.74;98520.22;3996069;29;20715;-74
2023/07/17 05:37:59;;;;;;;5.40;4.47;;;;;;;20.75;89.63;98514.31;4000732;29;20667;-74
2023/07/17 05:40:02;;;;;;;5.70;4.60;;;;;;;20.80;90.08;98515.50;4008057;29;20682;-74
2023/07/17 05:42:06;;;;;;;5.50;4.73;;;;;;;20.94;89.47;98526.38;4008220;29;20676;-74
2023/07/17 05:44:10;;;;;;;5.27;4.07;;;;;;;21.06;88.08;98518.94;4006543;29;21092;-74
2023/07/17 05:46:14;;;;;;;6.70;4.20;;;;;;;21.18;86.81;98517.69;4012984;29;20808;-74
2023/07/17 05:48:19;;;;;;;5.77;4.00;;;;;;;21.22;85.82;98519.84;4006252;29;20659;-74
2023/07/17 05:50:23;;;;;;;5.27;4.00;;;;;;;21.33;85.77;98519.56;4010752;29;20745;-74
2023/07/17 05:52:26;;;;;;;5.20;3.63;;;;;;;21.53;85.45;98523.63;4000893;29;20647;-78
2023/07/17 05:54:29;;;;;;;5.50;3.60;;;;;;;21.72;85.24;98539.28;3997258;29;20674;-79
2023/07/17 05:56:32;;;;;;;4.67;3.80;;;;;;;22.05;84.87;98532.03;4009453;29;20664;-79
2023/07/17 05:58:36;;;;;;;4.40;3.27;;;;;;;22.44;83.30;98543.72;3998979;29;20664;-79
2023/07/17 06:00:39;;;;;;;3.70;3.20;;;;;;;22.77;82.15;98538.19;4014508;29;20758;-78
2023/07/17 06:02:43;;;;;;;5.97;4.03;;;;;;;23.07;81.06;98543.63;4012498;29;20687;-79
2023/07/17 06:04:48;;;;;;;4.70;3.70;;;;;;;23.36;80.22;98547.38;4013108;29;20646;-79
2023/07/17 06:06:51;;;;;;;6.83;5.40;;;;;;;23.61;79.22;98546.25;4012354;29;20664;-78
2023/07/17 06:08:54;;;;;;;5.27;3.73;;;;;;;23.91;78.79;98548.91;4011701;29;20654;-79
2023/07/17 06:10:58;;;;;;;5.07;3.53;;;;;;;24.20;78.80;98551.72;4015523;29;20649;-79
2023/07/17 06:13:01;;;;;;;4.40;3.33;;;;;;;24.46;76.17;98557.53;4011043;29;20668;-79
2023/07/17 06:15:05;;;;;;;4.30;3.30;;;;;;;24.71;75.93;98562.50;4010791;29;20659;-78
2023/07/17 06:17:09;;;;;;;4.47;3.17;;;;;;;24.92;74.52;98550.09;4008346;29;20782;-79
2023/07/17 06:19:12;;;;;;;5.50;3.80;;;;;;;25.13;73.00;98569.75;4014966;29;20686;-79
2023/07/17 06:21:17;;;;;;;5.60;3.30;;;;;;;25.39;73.98;98564.78;4016043;29;20656;-78
2023/07/17 06:23:20;;;;;;;3.60;2.87;;;;;;;25.65;71.88;98560.66;4009899;29;20682;-78
2023/07/17 06:25:24;;;;;;;5.80;3.03;;;;;;;25.87;72.45;98556.19;4008713;29;20657;-78
2023/07/17 06:27:27;;;;;;;5.50;3.63;;;;;;;26.10;72.21;98569.22;4009876;29;20660;-79
2023/07/17 06:29:30;;;;;;;4.23;3.10;;;;;;;26.35;72.02;98570.50;4008260;29;20653;-78
2023/07/17 06:31:33;;;;;;;4.40;3.30;;;;;;;26.57;70.24;98574.84;4011695;29;20707;-78
2023/07/17 06:33:35;;;;;;;6.13;5.40;;;;;;;26.64;71.41;98575.72;4010412;29;21059;-78
2023/07/17 06:35:38;;;;;;;4.97;3.20;;;;;;;26.84;69.10;98574.88;4015011;29;21082;-78
2023/07/17 06:37:43;;;;;;;8.00;3.03;;;;;;;26.83;67.16;98575.06;4010253;29;20660;-78
2023/07/17 06:39:46;;;;;;;5.03;3.37;;;;;;;27.03;68.59;98574.22;4013383;29;20693;-78
2023/07/17 06:41:50;;;;;;;4.40;3.10;;;;;;;27.27;68.93;98579.97;4013518;29;20777;-80
2023/07/17 06:43:53;;;;;;;4.10;3.40;;;;;;;27.55;66.85;98578.91;4013129;29;20741;-78
2023/07/17 06:45:56;;;;;;;4.47;3.23;;;;;;;27.75;67.16;98576.31;4016194;29;20744;-78
2023/07/17 06:47:59;;;;;;;4.87;3.37;;;;;;;27.72;66.51;98584.75;4011637;29;20697;-78
2023/07/17 06:50:03;;;;;;;6.30;3.30;;;;;;;27.71;64.65;98569.69;4016103;29;20658;-79
2023/07/17 06:52:08;;;;;;;5.67;3.00;;;;;;;27.49;64.54;98573.47;4011723;29;20668;-78
2023/07/17 06:54:13;;;;;;;5.00;3.10;;;;;;;27.41;65.43;98576.34;4012948;29;20723;-78
2023/07/17 06:56:16;;;;;;;3.37;2.77;;;;;;;27.32;66.54;98577.53;4011602;29;20660;-78
2023/07/17 06:58:20;;;;;;;4.57;3.13;;;;;;;27.18;67.26;98564.22;4010595;29;20665;-78
2023/07/17 07:00:23;;;;;;;5.43;3.70;;;;;;;26.97;67.36;98560.78;4010990;29;20677;-78
2023/07/17 07:02:26;;;;;;;3.77;2.77;;;;;;;26.99;66.95;98561.41;4013645;29;20650;-78
2023/07/17 07:04:29;;;;;;;5.90;3.73;;;;;;;26.97;66.95;98566.13;4014386;29;20751;-78
2023/07/17 07:06:32;;;;;;;4.17;3.13;;;;;;;26.90;66.99;98560.75;4012582;29;20650;-78
2023/07/17 07:08:34;;;;;;;5.07;3.30;;;;;;;26.79;65.94;98563.06;4014385;29;21269;-78
2023/07/17 07:10:38;;;;;;;3.83;2.83;;;;;;;26.63;66.34;98553.47;4015491;29;21106;-78
2023/07/17 07:12:41;;;;;;;5.13;3.20;;;;;;;26.85;67.16;98562.31;4013821;29;20749;-78
2023/07/17 07:14:45;;;;;;;4.33;3.20;;;;;;;27.26;67.14;98559.53;4008826;29;21112;-78
2023/07/17 07:16:48;;;;;;;4.27;2.70;;;;;;;27.65;65.23;98562.47;4017249;29;20662;-78
2023/07/17 07:18:51;;;;;;;5.17;3.10;;;;;;;27.90;63.19;98563.59;4010392;29;20658;-78
2023/07/17 07:20:54;;;;;;;4.23;3.33;;;;;;;28.10;63.31;98560.81;4009202;29;20727;-78
2023/07/17 07:22:58;;;;;;;4.10;3.40;;;;;;;28.26;62.58;98557.72;4008760;29;20641;-78
2023/07/17 07:25:01;;;;;;;3.90;2.80;;;;;;;28.47;63.37;98564.78;4010527;29;20667;-78
2023/07/17 07:27:06;;;;;;;3.93;3.07;;;;;;;28.37;61.07;98558.97;4013444;29;20647;-78
2023/07/17 07:29:09;;;;;;;6.10;3.20;;;;;;;27.75;62.46;98552.19;4016079;29;20646;-78
2023/07/17 07:31:13;;;;;;;4.63;3.10;;;;;;;27.81;63.53;98546.81;4014438;29;20655;-78
2023/07/17 07:33:16;;;;;;;3.80;2.70;;;;;;;27.93;62.17;98544.41;4016382;29;20641;-78
2023/07/17 07:35:18;;;;;;;5.50;3.13;;;;;;;28.20;61.20;98547.78;4013364;29;20657;-78
2023/07/17 07:37:21;;;;;;;5.10;3.17;;;;;;;28.39;60.51;98552.38;4012819;29;21205;-78
2023/07/17 07:39:25;;;;;;;4.33;2.73;;;;;;;28.63;60.14;98552.59;4009985;29;20675;-78
2023/07/17 07:41:28;;;;;;;4.40;2.97;;;;;;;28.85;60.64;98556.75;4012092;29;20676;-78
2023/07/17 07:43:32;;;;;;;4.90;2.90;;;;;;;29.03;59.42;98554.28;4015487;29;21022;-78
2023/07/17 07:45:35;;;;;;;9.67;3.30;;;;;;;29.22;59.77;98551.56;4011078;29;20683;-78
2023/07/17 07:47:39;;;;;;;6.07;3.23;;;;;;;29.26;59.64;98552.81;4014394;29;20729;-78
2023/07/17 07:49:42;;;;;;;5.70;3.20;;;;;;;29.38;57.99;98556.53;4014823;29;20657;-78
2023/07/17 07:51:49;;;;;;;5.47;3.50;;;;;;;29.45;58.00;98556.50;4011096;29;21265;-78
2023/07/17 07:53:53;;;;;;;4.30;2.87;;;;;;;29.56;58.79;98554.81;4012309;29;21290;-78
2023/07/17 07:55:56;;;;;;;5.20;3.40;;;;;;;29.68;58.81;98561.19;4011328;29;20698;-78
2023/07/17 07:57:59;;;;;;;5.47;3.40;;;;;;;29.80;57.38;98553.28;4007509;29;21328;-79
2023/07/17 08:00:05;;;;;;;5.90;3.87;;;;;;;29.87;57.57;98546.03;4011720;29;20768;-79
2023/07/17 08:02:15;;;;;;;3.93;3.23;;;;;;;29.99;57.17;98555.88;4010602;29;21249;-78
2023/07/17 08:04:19;;;;;;;4.13;3.20;;;;;;;29.94;57.26;98560.28;4012986;29;20710;-78
2023/07/17 08:06:22;;;;;;;4.57;3.20;;;;;;;30.11;56.59;98560.38;4016652;29;20744;-79
2023/07/17 08:08:25;;;;;;;7.63;3.43;;;;;;;30.14;57.26;98556.44;4009874;29;20660;-78
2023/07/17 08:10:29;;;;;;;4.20;3.27;;;;;;;30.14;55.38;98559.94;4013566;29;20757;-79
2023/07/17 08:12:32;;;;;;;5.37;3.73;;;;;;;30.20;55.96;98556.38;4012611;29;20804;-78
2023/07/17 08:14:36;;;;;;;6.10;3.80;;;;;;;30.17;54.79;98554.13;4012515;29;20667;-78
2023/07/17 08:16:40;;;;;;;5.23;3.80;;;;;;;30.18;55.10;98555.78;4010682;29;21238;-78
2023/07/17 08:18:43;;;;;;;5.50;3.33;;;;;;;30.30;55.68;98561.31;4015056;29;21251;-79
2023/07/17 08:20:47;;;;;;;4.47;3.50;;;;;;;30.31;54.18;98553.03;3999020;29;20682;-79
2023/07/17 08:22:54;;;;;;;7.80;3.80;;;;;;;30.42;54.68;98550.47;4014531;29;20736;-79
2023/07/17 08:24:58;;;;;;;4.87;3.70;;;;;;;30.60;56.54;98557.81;4013833;29;20670;-78
2023/07/17 08:27:01;;;;;;;5.20;3.40;;;;;;;30.67;55.80;98550.50;4014222;29;21226;-78
2023/07/17 08:29:04;;;;;;;5.23;3.60;;;;;;;30.68;55.40;98557.56;4010455;29;20648;-78
2023/07/17 08:31:07;;;;;;;7.10;3.70;;;;;;;30.76;54.35;98559.97;4014485;29;20690;-78
2023/07/17 08:33:12;;;;;;;3.80;3.23;;;;;;;30.85;54.96;98555.94;4011303;29;21048;-78
2023/07/17 08:35:15;;;;;;;7.00;3.77;;;;;;;30.89;54.73;98555.31;4014330;29;20662;-78
2023/07/17 08:37:18;;;;;;;4.87;3.77;;;;;;;30.29;54.11;98541.63;4013091;29;21001;-78
2023/07/17 08:39:21;;;;;;;5.33;3.60;;;;;;;30.08;55.91;98539.25;3995823;29;20656;-78
2023/07/17 08:41:25;;;;;;;6.40;4.20;;;;;;;30.29;55.31;98544.31;4010298;29;20685;-78
2023/07/17 08:43:29;;;;;;;5.20;3.60;;;;;;;30.54;54.00;98554.13;4014595;29;20645;-78
2023/07/17 08:45:32;;;;;;;5.70;3.83;;;;;;;30.78;53.92;98553.31;4009435;29;20730;-79
2023/07/17 08:47:36;;;;;;;5.50;3.67;;;;;;;30.89;52.69;98547.22;4006730;29;20690;-78
2023/07/17 08:49:41;;;;;;;5.23;3.80;;;;;;;30.82;54.07;98553.69;4010504;29;20670;-78
2023/07/17 08:51:44;;;;;;;7.90;7.10;;;;;;;30.62;53.45;98547.66;4023513;29;20655;-78
2023/07/17 08:53:47;;;;;;;6.10;3.70;;;;;;;30.50;54.04;98544.81;4012219;29;20677;-78
2023/07/17 08:55:52;;;;;;;5.27;3.33;;;;;;;30.49;53.71;98542.34;4012619;29;20701;-78
2023/07/17 08:57:55;;;;;;;4.63;3.33;;;;;;;30.27;53.39;98532.94;4010011;29;21067;-78
2023/07/17 08:59:59;;;;;;;6.50;3.90;;;;;;;30.18;53.26;98534.25;4011031;29;20657;-78
2023/07/17 09:02:04;;;;;;;4.77;3.13;;;;;;;30.06;53.09;98530.59;4012967;29;20784;-78
2023/07/17 09:04:09;;;;;;;5.97;3.77;;;;;;;30.04;52.38;98542.59;4010102;29;20728;-78
2023/07/17 09:06:15;;;;;;;5.00;3.60;;;;;;;30.00;52.60;98531.44;4012548;29;21084;-78
2023/07/17 09:08:18;;;;;;;4.50;3.60;;;;;;;29.94;53.01;98528.81;4017928;29;21271;-78
2023/07/17 09:10:23;;;;;;;5.70;3.40;;;;;;;29.86;52.19;98528.22;4009496;29;20771;-78
2023/07/17 09:12:26;;;;;;;4.23;3.40;;;;;;;29.70;53.33;98528.69;4007157;29;24115;-78
2023/07/17 09:14:29;;;;;;;9.60;3.57;;;;;;;29.53;52.93;98530.22;4012808;29;21317;-78
2023/07/17 09:16:32;;;;;;;4.90;3.97;;;;;;;29.33;53.87;98529.41;4014639;29;20671;-78
2023/07/17 09:18:37;;;;;;;5.13;3.80;;;;;;;29.01;51.51;98526.78;4010742;29;20692;-78
2023/07/17 09:20:40;;;;;;;6.30;3.80;;;;;;;28.93;52.41;98523.47;4008603;29;20686;-78
2023/07/17 09:22:44;;;;;;;6.93;4.07;;;;;;;28.92;52.75;98535.28;4007609;29;20739;-78
2023/07/17 09:24:49;;;;;;;7.33;4.10;;;;;;;29.24;52.87;98530.69;4009373;29;21211;-78
2023/07/17 09:26:55;;;;;;;7.00;3.47;;;;;;;29.40;51.74;98532.94;4011905;29;20744;-78
2023/07/17 09:28:59;;;;;;;5.53;3.63;;;;;;;29.30;52.35;98532.53;4011661;29;20669;-78
2023/07/17 09:31:01;;;;;;;4.10;3.27;;;;;;;29.27;52.89;98524.88;4007480;29;20654;-78
2023/07/17 09:33:06;;;;;;;5.70;3.50;;;;;;;29.48;53.46;98527.31;4012050;29;20665;-78
2023/07/17 09:35:11;;;;;;;5.00;3.60;;;;;;;29.73;52.81;98528.25;4000221;29;21043;-78
2023/07/17 09:37:14;;;;;;;5.13;3.37;;;;;;;29.78;53.13;98536.50;4025427;29;20675;-78
2023/07/17 09:39:19;;;;;;;5.63;3.63;;;;;;;29.97;53.21;98536.44;4012658;29;20725;-78
2023/07/17 09:41:23;;;;;;;5.43;4.10;;;;;;;29.95;52.31;98527.78;4011680;29;20678;-78
2023/07/17 09:43:30;;;;;;;4.50;3.03;;;;;;;29.93;52.65;98529.00;4002354;29;20674;-78